LOG915M EGPD-EGPH
Flight info
| Callsign | LOG915M |
|---|---|
| Flight time | 0h 30m |
| Altitude | 18000 |
| Route | GLESK P600 PTH |
| Aircraft | E145/M-SABDFGRW/S |
Departure
| Time | 2026-04-20 18:27 |
|---|---|
| Airport | Aberdeen International Airport (EGPD) |
Arrival
| Time | 2026-04-20 18:57 |
|---|---|
| Airport | Edinburgh Airport (EGPH) |
| Time | Latitude | Longitude | Altitude | Speed | Heading |
|---|---|---|---|---|---|
| 2026-04-20 18:05 | 57.20227 | -2.20440 | 216 ft | 0 kts | 136° |
| 2026-04-20 18:22 | 57.20229 | -2.20444 | 216 ft | 3 kts | 136° |
| 2026-04-20 18:22 | 57.20248 | -2.20478 | 217 ft | 3 kts | 136° |
| 2026-04-20 18:23 | 57.20260 | -2.20499 | 217 ft | 0 kts | 136° |
| 2026-04-20 18:24 | 57.20260 | -2.20492 | 217 ft | 1 kts | 96° |
| 2026-04-20 18:24 | 57.20266 | -2.20484 | 216 ft | 0 kts | 24° |
| 2026-04-20 18:24 | 57.20303 | -2.20411 | 214 ft | 12 kts | 47° |
| 2026-04-20 18:25 | 57.20388 | -2.20363 | 213 ft | 15 kts | 338° |
| 2026-04-20 18:25 | 57.20491 | -2.20335 | 213 ft | 18 kts | 47° |
| 2026-04-20 18:25 | 57.20565 | -2.20187 | 210 ft | 6 kts | 77° |
| 2026-04-20 18:25 | 57.20570 | -2.20166 | 210 ft | 5 kts | 46° |
| 2026-04-20 18:26 | 57.20598 | -2.20082 | 209 ft | 9 kts | 129° |
| 2026-04-20 18:26 | 57.20454 | -2.19972 | 207 ft | 57 kts | 157° |
| 2026-04-20 18:26 | 57.19846 | -2.19524 | 227 ft | 122 kts | 157° |
| 2026-04-20 18:26 | 57.19070 | -2.18853 | 729 ft | 128 kts | 140° |
| 2026-04-20 18:27 | 57.18668 | -2.17492 | 1388 ft | 126 kts | 97° |
| 2026-04-20 18:27 | 57.18345 | -2.16069 | 2079 ft | 125 kts | 135° |
| 2026-04-20 18:27 | 57.17513 | -2.15554 | 2579 ft | 147 kts | 179° |
| 2026-04-20 18:27 | 57.16473 | -2.16479 | 2971 ft | 187 kts | 224° |
| 2026-04-20 18:28 | 57.15654 | -2.18598 | 3405 ft | 219 kts | 231° |
| 2026-04-20 18:28 | 57.14667 | -2.21042 | 3759 ft | 255 kts | 230° |
| 2026-04-20 18:28 | 57.13584 | -2.23667 | 4648 ft | 261 kts | 230° |
| 2026-04-20 18:28 | 57.12483 | -2.26310 | 5606 ft | 264 kts | 230° |
| 2026-04-20 18:29 | 57.11370 | -2.28980 | 6524 ft | 267 kts | 230° |
| 2026-04-20 18:29 | 57.10234 | -2.31697 | 7330 ft | 271 kts | 230° |
| 2026-04-20 18:29 | 57.09076 | -2.34464 | 8155 ft | 275 kts | 229° |
| 2026-04-20 18:29 | 57.07902 | -2.37267 | 8989 ft | 279 kts | 229° |
| 2026-04-20 18:30 | 57.06725 | -2.40071 | 9802 ft | 282 kts | 229° |
| 2026-04-20 18:30 | 57.05510 | -2.42964 | 10580 ft | 286 kts | 229° |
| 2026-04-20 18:30 | 57.04303 | -2.45834 | 11330 ft | 289 kts | 229° |
| 2026-04-20 18:30 | 57.03067 | -2.48770 | 12062 ft | 293 kts | 229° |
| 2026-04-20 18:31 | 57.01811 | -2.51750 | 12787 ft | 296 kts | 229° |
| 2026-04-20 18:31 | 57.00545 | -2.54750 | 13437 ft | 301 kts | 229° |
| 2026-04-20 18:31 | 56.99226 | -2.57868 | 13668 ft | 316 kts | 230° |
| 2026-04-20 18:31 | 56.97857 | -2.61105 | 14152 ft | 326 kts | 230° |
| 2026-04-20 18:32 | 56.96438 | -2.64452 | 14408 ft | 335 kts | 230° |
| 2026-04-20 18:32 | 56.94987 | -2.67871 | 14413 ft | 338 kts | 229° |
| 2026-04-20 18:32 | 56.93541 | -2.71275 | 14414 ft | 341 kts | 229° |
| 2026-04-20 18:32 | 56.92085 | -2.74695 | 14410 ft | 341 kts | 229° |
| 2026-04-20 18:33 | 56.90621 | -2.78126 | 14414 ft | 342 kts | 228° |
| 2026-04-20 18:33 | 56.88877 | -2.81022 | 14416 ft | 336 kts | 211° |
| 2026-04-20 18:33 | 56.86930 | -2.83486 | 14411 ft | 337 kts | 211° |
| 2026-04-20 18:33 | 56.84993 | -2.85942 | 14410 ft | 337 kts | 211° |
| 2026-04-20 18:34 | 56.83059 | -2.88390 | 14409 ft | 337 kts | 211° |
| 2026-04-20 18:34 | 56.81137 | -2.90821 | 14403 ft | 338 kts | 212° |
| 2026-04-20 18:34 | 56.79204 | -2.93263 | 14406 ft | 338 kts | 211° |
| 2026-04-20 18:34 | 56.77242 | -2.95739 | 14411 ft | 338 kts | 211° |
| 2026-04-20 18:35 | 56.75360 | -2.98367 | 14415 ft | 339 kts | 218° |
| 2026-04-20 18:35 | 56.73435 | -3.00758 | 14408 ft | 336 kts | 208° |
| 2026-04-20 18:35 | 56.71462 | -3.03088 | 14382 ft | 336 kts | 210° |
| 2026-04-20 18:35 | 56.69494 | -3.05498 | 14398 ft | 336 kts | 211° |
| 2026-04-20 18:36 | 56.67573 | -3.07882 | 14404 ft | 336 kts | 211° |
| 2026-04-20 18:36 | 56.65640 | -3.10292 | 14407 ft | 337 kts | 212° |
| 2026-04-20 18:36 | 56.63696 | -3.12718 | 14394 ft | 337 kts | 212° |
| 2026-04-20 18:36 | 56.61747 | -3.15148 | 14379 ft | 337 kts | 212° |
| 2026-04-20 18:37 | 56.59808 | -3.17564 | 14402 ft | 337 kts | 212° |
| 2026-04-20 18:37 | 56.57865 | -3.19982 | 14397 ft | 337 kts | 212° |
| 2026-04-20 18:37 | 56.55951 | -3.22361 | 14408 ft | 337 kts | 212° |
| 2026-04-20 18:37 | 56.53999 | -3.24785 | 14399 ft | 338 kts | 212° |
| 2026-04-20 18:38 | 56.52049 | -3.27203 | 14394 ft | 338 kts | 212° |
| 2026-04-20 18:38 | 56.50104 | -3.29611 | 14406 ft | 338 kts | 212° |
| 2026-04-20 18:38 | 56.48167 | -3.32007 | 14185 ft | 338 kts | 212° |
| 2026-04-20 18:38 | 56.46220 | -3.34412 | 13679 ft | 340 kts | 212° |
| 2026-04-20 18:39 | 56.44271 | -3.36823 | 13157 ft | 336 kts | 212° |
| 2026-04-20 18:39 | 56.42375 | -3.39282 | 12668 ft | 332 kts | 213° |
| 2026-04-20 18:39 | 56.40539 | -3.41664 | 12149 ft | 328 kts | 213° |
| 2026-04-20 18:39 | 56.38679 | -3.44076 | 11634 ft | 324 kts | 213° |
| 2026-04-20 18:40 | 56.36864 | -3.46425 | 11122 ft | 319 kts | 214° |
| 2026-04-20 18:40 | 56.35080 | -3.48732 | 10697 ft | 312 kts | 213° |
| 2026-04-20 18:40 | 56.33335 | -3.50985 | 10502 ft | 306 kts | 213° |
| 2026-04-20 18:40 | 56.31604 | -3.53217 | 10293 ft | 301 kts | 213° |
| 2026-04-20 18:41 | 56.29903 | -3.55409 | 10086 ft | 298 kts | 213° |
| 2026-04-20 18:41 | 56.28237 | -3.57553 | 9858 ft | 296 kts | 213° |
| 2026-04-20 18:41 | 56.26556 | -3.59690 | 9632 ft | 293 kts | 211° |
| 2026-04-20 18:41 | 56.24812 | -3.61639 | 9386 ft | 291 kts | 210° |
| 2026-04-20 18:42 | 56.23101 | -3.63528 | 9162 ft | 289 kts | 210° |
| 2026-04-20 18:42 | 56.21379 | -3.65423 | 8923 ft | 288 kts | 209° |
| 2026-04-20 18:42 | 56.19665 | -3.67306 | 8684 ft | 287 kts | 209° |
| 2026-04-20 18:42 | 56.17957 | -3.69170 | 8448 ft | 284 kts | 209° |
| 2026-04-20 18:43 | 56.16266 | -3.71004 | 8218 ft | 279 kts | 209° |
| 2026-04-20 18:43 | 56.14630 | -3.72774 | 7984 ft | 276 kts | 209° |
| 2026-04-20 18:43 | 56.12956 | -3.74582 | 7734 ft | 274 kts | 209° |
| 2026-04-20 18:43 | 56.11331 | -3.76325 | 7496 ft | 272 kts | 209° |
| 2026-04-20 18:44 | 56.09705 | -3.78069 | 7260 ft | 270 kts | 209° |
| 2026-04-20 18:44 | 56.08102 | -3.79783 | 7024 ft | 268 kts | 209° |
| 2026-04-20 18:44 | 56.06496 | -3.81495 | 6846 ft | 265 kts | 209° |
| 2026-04-20 18:44 | 56.04909 | -3.83187 | 6687 ft | 263 kts | 209° |
| 2026-04-20 18:45 | 56.03347 | -3.84860 | 6527 ft | 260 kts | 209° |
| 2026-04-20 18:45 | 56.01789 | -3.86529 | 6369 ft | 259 kts | 209° |
| 2026-04-20 18:45 | 56.00251 | -3.88170 | 6212 ft | 257 kts | 209° |
| 2026-04-20 18:45 | 55.98679 | -3.89846 | 6095 ft | 253 kts | 209° |
| 2026-04-20 18:46 | 55.97210 | -3.91409 | 6013 ft | 249 kts | 209° |
| 2026-04-20 18:46 | 55.95720 | -3.92994 | 5995 ft | 242 kts | 209° |
| 2026-04-20 18:46 | 55.94293 | -3.94512 | 5924 ft | 239 kts | 209° |
| 2026-04-20 18:46 | 55.92857 | -3.96036 | 5846 ft | 235 kts | 209° |
| 2026-04-20 18:47 | 55.91504 | -3.97478 | 5822 ft | 217 kts | 209° |
| 2026-04-20 18:47 | 55.90227 | -3.98847 | 5735 ft | 214 kts | 209° |
| 2026-04-20 18:47 | 55.88889 | -3.99955 | 5640 ft | 208 kts | 186° |
| 2026-04-20 18:47 | 55.87523 | -3.99529 | 5569 ft | 196 kts | 150° |
| 2026-04-20 18:48 | 55.86328 | -3.98415 | 5501 ft | 194 kts | 149° |
| 2026-04-20 18:48 | 55.85121 | -3.97295 | 5420 ft | 193 kts | 149° |
| 2026-04-20 18:48 | 55.83964 | -3.96113 | 5335 ft | 189 kts | 138° |
| 2026-04-20 18:48 | 55.82999 | -3.94551 | 5265 ft | 187 kts | 134° |
| 2026-04-20 18:49 | 55.82036 | -3.92972 | 5184 ft | 187 kts | 134° |
| 2026-04-20 18:49 | 55.81081 | -3.91391 | 5109 ft | 188 kts | 132° |
| 2026-04-20 18:49 | 55.80323 | -3.89502 | 5034 ft | 187 kts | 119° |
| 2026-04-20 18:49 | 55.79636 | -3.87509 | 5002 ft | 186 kts | 120° |
| 2026-04-20 18:50 | 55.79150 | -3.85440 | 5010 ft | 181 kts | 102° |
| 2026-04-20 18:50 | 55.79280 | -3.83269 | 5004 ft | 177 kts | 63° |
| 2026-04-20 18:50 | 55.79902 | -3.81400 | 5004 ft | 176 kts | 61° |
| 2026-04-20 18:50 | 55.80539 | -3.79508 | 5006 ft | 175 kts | 60° |
| 2026-04-20 18:51 | 55.81163 | -3.77674 | 4999 ft | 174 kts | 60° |
| 2026-04-20 18:51 | 55.81797 | -3.75823 | 4980 ft | 174 kts | 60° |
| 2026-04-20 18:51 | 55.82439 | -3.73950 | 4780 ft | 178 kts | 60° |
| 2026-04-20 18:51 | 55.83083 | -3.72079 | 4554 ft | 175 kts | 60° |
| 2026-04-20 18:52 | 55.83715 | -3.70245 | 4327 ft | 173 kts | 60° |
| 2026-04-20 18:52 | 55.84346 | -3.68413 | 4097 ft | 171 kts | 60° |
| 2026-04-20 18:52 | 55.84965 | -3.66613 | 3859 ft | 170 kts | 60° |
| 2026-04-20 18:52 | 55.85577 | -3.64832 | 3620 ft | 169 kts | 60° |
| 2026-04-20 18:53 | 55.86196 | -3.63031 | 3374 ft | 168 kts | 60° |
| 2026-04-20 18:53 | 55.86803 | -3.61263 | 3135 ft | 167 kts | 60° |
| 2026-04-20 18:53 | 55.87409 | -3.59496 | 2895 ft | 166 kts | 60° |
| 2026-04-20 18:53 | 55.88009 | -3.57746 | 2666 ft | 165 kts | 60° |
| 2026-04-20 18:54 | 55.88607 | -3.56000 | 2430 ft | 162 kts | 60° |
| 2026-04-20 18:54 | 55.89177 | -3.54333 | 2211 ft | 155 kts | 60° |
| 2026-04-20 18:54 | 55.89728 | -3.52723 | 2002 ft | 149 kts | 60° |
| 2026-04-20 18:54 | 55.90262 | -3.51160 | 1787 ft | 146 kts | 60° |
| 2026-04-20 18:55 | 55.90789 | -3.49616 | 1579 ft | 144 kts | 60° |
| 2026-04-20 18:55 | 55.91307 | -3.48097 | 1378 ft | 142 kts | 60° |
| 2026-04-20 18:55 | 55.91815 | -3.46608 | 1183 ft | 138 kts | 60° |
| 2026-04-20 18:55 | 55.92296 | -3.45195 | 993 ft | 126 kts | 60° |
| 2026-04-20 18:56 | 55.92729 | -3.43919 | 829 ft | 113 kts | 60° |
| 2026-04-20 18:56 | 55.93133 | -3.42724 | 682 ft | 114 kts | 59° |
| 2026-04-20 18:56 | 55.93554 | -3.41498 | 522 ft | 116 kts | 60° |
| 2026-04-20 18:56 | 55.93976 | -3.40254 | 369 ft | 117 kts | 59° |
| 2026-04-20 18:57 | 55.94400 | -3.39020 | 203 ft | 117 kts | 59° |
| 2026-04-20 18:57 | 55.94813 | -3.37799 | 105 ft | 111 kts | 59° |
| 2026-04-20 18:57 | 55.95107 | -3.36931 | 103 ft | 51 kts | 58° |
| 2026-04-20 18:57 | 55.95237 | -3.36545 | 104 ft | 19 kts | 59° |
| 2026-04-20 18:58 | 55.95233 | -3.36396 | 104 ft | 14 kts | 149° |
| 2026-04-20 18:58 | 55.95157 | -3.36313 | 104 ft | 10 kts | 152° |
| 2026-04-20 18:58 | 55.95109 | -3.36358 | 104 ft | 9 kts | 236° |
| 2026-04-20 18:58 | 55.95044 | -3.36377 | 104 ft | 12 kts | 140° |
| 2026-04-20 18:59 | 55.94986 | -3.36310 | 104 ft | 4 kts | 148° |
| 2026-04-20 18:59 | 55.94967 | -3.36289 | 104 ft | 1 kts | 148° |
| 2026-04-20 18:59 | 55.94961 | -3.36282 | 104 ft | 0 kts | 148° |